Time;durP1;ratioP1;P1;durP2;ratioP2;P2;SDS_P1;SDS_P2;PMS_P1;PMS_P2;Temp;Humidity;BMP_temperature;BMP_pressure;BME280_temperature;BME280_humidity;BME280_pressure;Samples;Min_cycle;Max_cycle;Signal;HPM_P1;HPM_P2
2022/11/14 00:00:31;;;;;;;12.45;8.80;;;18.40;88.00;;;18.78;50.83;99843.81;4994005;28;20041;-74
2022/11/14 00:03:09;;;;;;;14.27;9.35;;;18.40;88.00;;;18.82;50.84;99844.81;5013400;28;20713;-74
2022/11/14 00:05:43;;;;;;;11.90;8.48;;;18.40;87.90;;;18.83;50.82;99840.16;4995481;28;20068;-74
2022/11/14 00:08:16;;;;;;;15.25;10.30;;;18.50;88.10;;;18.79;51.00;99837.19;4993047;28;20056;-74
2022/11/14 00:10:44;;;;;;;12.90;9.52;;;18.50;88.10;;;18.81;51.08;99834.97;5007409;28;20485;-74
2022/11/14 00:13:10;;;;;;;14.02;8.82;;;18.50;88.20;;;18.80;50.80;99841.59;5008981;28;20038;-74
2022/11/14 00:15:36;;;;;;;11.43;7.97;;;18.40;87.90;;;18.80;50.85;99832.50;5010078;28;20461;-74
2022/11/14 00:18:03;;;;;;;12.15;8.52;;;18.40;88.00;;;18.79;50.65;99837.19;5025568;28;20540;-74
2022/11/14 00:20:29;;;;;;;14.60;9.50;;;18.50;87.80;;;18.80;50.85;99835.25;5024442;28;20041;-74
2022/11/14 00:22:55;;;;;;;14.18;10.05;;;18.40;87.90;;;18.81;51.00;99834.97;5008570;28;20041;-74
2022/11/14 00:25:21;;;;;;;13.48;9.10;;;18.50;88.10;;;18.79;51.09;99831.69;5027632;28;20375;-74
2022/11/14 00:27:47;;;;;;;13.82;9.40;;;18.50;88.10;;;18.79;50.91;99826.19;5025427;28;20049;-74
2022/11/14 00:30:14;;;;;;;12.30;8.50;;;18.50;87.90;;;18.76;50.84;99835.06;5022937;28;20041;-74
2022/11/14 00:32:40;;;;;;;16.60;10.32;;;18.50;87.80;;;18.75;50.89;99830.69;5010263;28;20228;-74
2022/11/14 00:35:08;;;;;;;14.63;9.45;;;18.40;87.80;;;18.76;50.76;99831.50;5031679;28;20041;-74
2022/11/14 00:37:34;;;;;;;16.60;9.32;;;18.40;87.70;;;18.76;51.00;99821.31;5009441;28;20049;-74
2022/11/14 00:40:00;;;;;;;13.63;9.15;;;18.40;88.00;;;18.76;51.10;99843.31;5012189;28;20060;-74
2022/11/14 00:42:26;;;;;;;12.82;9.15;;;18.40;88.20;;;18.77;51.23;99841.38;5031146;28;20091;-74
2022/11/14 00:44:52;;;;;;;13.43;9.52;;;18.40;88.30;;;18.77;50.90;99839.41;5011427;28;20672;-74
2022/11/14 00:47:18;;;;;;;13.90;9.45;;;18.40;87.90;;;18.74;51.04;99842.75;5026588;28;20050;-74
2022/11/14 00:49:44;;;;;;;14.52;10.35;;;18.40;88.00;;;18.75;50.73;99829.81;5028896;28;20473;-74
2022/11/14 00:52:10;;;;;;;13.52;9.05;;;18.40;87.90;;;18.74;50.77;99834.50;4997606;28;20150;-74
2022/11/14 00:54:37;;;;;;;12.25;8.48;;;18.40;87.90;;;18.76;51.12;99831.50;4992804;28;20045;-74
2022/11/14 00:57:03;;;;;;;12.77;9.20;;;18.40;88.20;;;18.76;51.23;99837.00;4993781;28;20060;-74
2022/11/14 00:59:29;;;;;;;13.07;9.52;;;18.40;88.40;;;18.74;51.21;99826.25;5011898;28;20049;-74
2022/11/14 01:01:55;;;;;;;16.35;9.75;;;18.40;88.40;;;18.74;50.90;99834.50;5028601;28;20042;-74
2022/11/14 01:04:21;;;;;;;12.93;8.77;;;18.40;88.00;;;18.74;50.84;99830.94;5010481;28;20378;-74
2022/11/14 01:06:47;;;;;;;14.15;8.25;;;18.40;88.00;;;18.74;50.70;99826.25;5029147;28;20120;-74
2022/11/14 01:09:13;;;;;;;13.40;8.85;;;18.40;87.80;;;18.69;51.01;99818.09;5010884;28;20037;-74
2022/11/14 01:11:39;;;;;;;15.20;9.55;;;18.40;88.10;;;18.76;51.05;99821.31;5029490;28;20129;-74
2022/11/14 01:14:06;;;;;;;12.18;7.40;;;18.40;88.40;;;18.76;51.22;99818.56;5031227;28;20045;-74
2022/11/14 01:16:32;;;;;;;14.45;9.15;;;18.40;88.50;;;18.73;50.97;99818.34;4990696;28;20067;-74
2022/11/14 01:18:58;;;;;;;15.10;9.38;;;18.40;88.00;;;18.71;51.26;99801.31;5033620;28;20047;-74
2022/11/14 01:21:24;;;;;;;12.32;9.73;;;18.40;88.00;;;18.71;51.03;99807.63;5030995;28;20033;-74
2022/11/14 01:23:50;;;;;;;13.13;9.52;;;18.40;87.90;;;18.72;50.91;99811.19;5028924;28;20128;-74
2022/11/14 01:26:16;;;;;;;12.95;9.05;;;18.40;87.90;;;18.69;51.14;99815.38;5031955;28;20396;-74
2022/11/14 01:28:42;;;;;;;15.43;9.60;;;18.40;88.10;;;18.70;51.25;99810.66;5016935;28;20039;-74
2022/11/14 01:31:20;;;;;;;16.58;9.65;;;18.40;88.40;;;18.70;51.32;99805.19;4997334;28;20067;-74
2022/11/14 01:33:50;;;;;;;13.80;8.60;;;18.40;88.40;;;18.72;50.89;99803.75;5017849;28;20449;-74
2022/11/14 01:36:17;;;;;;;12.70;9.43;;;18.40;88.10;;;18.69;50.99;99801.63;5017917;28;20484;-74
2022/11/14 01:38:42;;;;;;;14.25;9.13;;;18.40;87.90;;;18.71;50.87;99790.34;5018154;28;20045;-74
2022/11/14 01:41:14;;;;;;;12.60;8.50;;;18.40;87.90;;;18.71;50.94;99795.84;5015272;28;20672;-74
2022/11/14 01:43:40;;;;;;;11.23;8.57;;;18.40;87.90;;;18.71;51.25;99802.13;5005609;28;20162;-74
2022/11/14 01:46:14;;;;;;;13.57;9.43;;;18.40;88.40;;;18.72;51.27;99795.50;5001517;28;20120;-74
2022/11/14 01:48:42;;;;;;;11.90;8.23;;;18.40;88.40;;;18.73;50.93;99804.59;5030687;28;20072;-74
2022/11/14 01:51:29;;;;;;;12.07;8.07;;;18.40;88.10;;;18.69;51.06;99796.13;5035395;28;20057;-74
2022/11/14 01:53:57;;;;;;;12.38;9.38;;;18.40;88.10;;;18.66;50.96;99794.00;5013694;28;20049;-74
2022/11/14 01:56:37;;;;;;;12.77;9.20;;;18.30;88.00;;;18.66;50.90;99794.78;4996955;28;20051;-74
2022/11/14 01:59:21;;;;;;;14.95;10.02;;;18.30;87.90;;;18.69;51.51;99798.88;5025981;28;20042;-74
2022/11/14 02:01:49;;;;;;;13.48;8.93;;;18.30;88.30;;;18.67;51.43;99792.84;5012364;28;20045;-74
2022/11/14 02:04:29;;;;;;;12.40;9.15;;;18.30;88.30;;;18.69;51.07;99790.63;5011372;28;20037;-74
2022/11/14 02:06:58;;;;;;;16.45;9.85;;;18.30;88.30;;;18.67;50.85;99790.09;4999640;28;20041;-74
2022/11/14 02:09:25;;;;;;;12.82;9.05;;;18.40;88.00;;;18.66;50.88;99783.81;4990365;28;20042;-74
2022/11/14 02:11:52;;;;;;;13.18;9.00;;;18.40;88.00;;;18.68;50.99;99778.03;4996919;28;20049;-74
2022/11/14 02:14:18;;;;;;;12.75;8.98;;;18.30;87.80;;;18.66;51.14;99778.31;4995558;28;20401;-74
2022/11/14 02:16:44;;;;;;;13.48;9.35;;;18.40;88.00;;;18.68;51.27;99775.28;4995023;28;20049;-74
2022/11/14 02:19:12;;;;;;;11.80;7.95;;;18.40;88.30;;;18.68;51.28;99763.47;4996531;28;20048;-74
2022/11/14 02:21:38;;;;;;;15.10;9.55;;;18.40;88.40;;;18.66;51.01;99763.75;4997366;28;20110;-74
2022/11/14 02:24:12;;;;;;;11.27;8.63;;;18.30;88.00;;;18.66;51.04;99755.50;5027881;28;20044;-74
2022/11/14 02:26:39;;;;;;;12.60;8.27;;;18.40;88.00;;;18.66;51.03;99769.25;5016035;28;20440;-74
2022/11/14 02:29:06;;;;;;;14.43;9.07;;;18.30;87.80;;;18.65;50.73;99765.69;5014145;28;20692;-74
2022/11/14 02:31:33;;;;;;;14.57;9.43;;;18.30;87.90;;;18.69;50.84;99765.91;5027351;28;20447;-74
2022/11/14 02:33:59;;;;;;;11.43;8.05;;;18.30;88.20;;;18.70;51.13;99761.22;4993819;28;20046;-74
2022/11/14 02:36:25;;;;;;;14.02;9.50;;;18.40;88.30;;;18.67;51.20;99762.63;5014079;28;20094;-74
2022/11/14 02:38:52;;;;;;;12.73;9.02;;;18.30;88.10;;;18.66;50.97;99770.06;5016365;28;20041;-74
2022/11/14 02:41:17;;;;;;;15.25;9.10;;;18.30;88.00;;;18.66;50.88;99766.50;5029270;28;20461;-74
2022/11/14 02:43:44;;;;;;;13.82;9.98;;;18.30;87.90;;;18.65;50.87;99773.13;5029529;28;20428;-74
2022/11/14 02:46:10;;;;;;;13.02;8.82;;;18.30;87.80;;;18.65;50.95;99764.88;5034680;28;20048;-73
2022/11/14 02:48:36;;;;;;;11.13;8.18;;;18.30;87.90;;;18.62;51.07;99760.81;5013233;28;20048;-73
2022/11/14 02:51:02;;;;;;;11.48;7.93;;;18.30;88.30;;;18.61;51.37;99764.66;5027521;28;20041;-74
2022/11/14 02:53:28;;;;;;;14.15;9.70;;;18.30;88.30;;;18.60;51.12;99756.75;5013973;28;20092;-74
2022/11/14 02:55:54;;;;;;;12.35;9.15;;;18.30;88.00;;;18.60;50.98;99757.56;5012600;28;20401;-74
2022/11/14 02:58:20;;;;;;;12.57;8.30;;;18.30;88.00;;;18.62;51.03;99760.81;5013600;28;20041;-74
2022/11/14 03:00:46;;;;;;;15.38;9.43;;;18.30;87.90;;;18.57;50.97;99752.66;4996362;28;20042;-74
2022/11/14 03:03:12;;;;;;;13.35;8.60;;;18.30;87.70;;;18.63;51.11;99756.13;5030864;28;20091;-74
2022/11/14 03:05:39;;;;;;;11.20;8.10;;;18.30;88.10;;;18.62;51.25;99758.06;5034451;28;20041;-74
2022/11/14 03:08:05;;;;;;;12.23;8.32;;;18.30;88.40;;;18.59;51.32;99747.66;5017119;28;20033;-74
2022/11/14 03:10:31;;;;;;;13.82;9.48;;;18.20;88.20;;;18.58;51.02;99740.53;5027053;28;20858;-74
2022/11/14 03:12:57;;;;;;;10.32;7.60;;;18.30;88.30;;;18.60;51.28;99745.75;4995094;28;20049;-74
2022/11/14 03:15:23;;;;;;;17.02;9.70;;;18.30;88.00;;;18.56;51.04;99744.72;5017823;28;20705;-74
2022/11/14 03:17:50;;;;;;;11.43;8.52;;;18.30;87.90;;;18.57;50.94;99743.59;5014596;28;20477;-74
2022/11/14 03:20:16;;;;;;;13.48;9.40;;;18.20;87.90;;;18.58;51.41;99742.50;5013342;28;20056;-74
2022/11/14 03:22:42;;;;;;;12.20;9.50;;;18.20;88.20;;;18.58;51.43;99742.50;4989463;28;20042;-74
2022/11/14 03:25:08;;;;;;;14.05;8.73;;;18.30;88.40;;;18.61;51.44;99739.94;5033133;28;20392;-74
2022/11/14 03:27:35;;;;;;;11.77;8.10;;;18.20;88.20;;;18.56;51.22;99742.78;4995811;28;20041;-74
2022/11/14 03:30:01;;;;;;;10.65;8.07;;;18.20;88.20;;;18.56;51.01;99741.97;5027921;28;20091;-74
2022/11/14 03:32:28;;;;;;;11.70;8.00;;;18.20;88.10;;;18.57;50.89;99749.09;5028712;28;20061;-74
2022/11/14 03:34:53;;;;;;;15.02;9.50;;;18.20;87.90;;;18.58;51.13;99742.50;5026891;28;20384;-74
2022/11/14 03:37:19;;;;;;;12.63;8.02;;;18.30;88.10;;;18.57;51.15;99751.81;5024180;28;20034;-74
2022/11/14 03:39:46;;;;;;;10.43;7.47;;;18.20;88.20;;;18.59;51.26;99749.59;5037171;28;20044;-74
2022/11/14 03:42:14;;;;;;;10.07;8.00;;;18.30;88.30;;;18.58;51.21;99745.25;4993503;28;20448;-73
2022/11/14 03:44:40;;;;;;;9.38;7.53;;;18.30;88.30;;;18.57;51.02;99735.34;5021124;28;20038;-74
2022/11/14 03:47:06;;;;;;;12.48;8.93;;;18.30;88.10;;;18.58;50.92;99734.25;5023310;28;20470;-74
2022/11/14 03:49:32;;;;;;;9.75;7.57;;;18.30;87.90;;;18.54;51.01;99736.75;5023403;28;20451;-74
2022/11/14 03:51:58;;;;;;;11.07;7.65;;;18.30;88.60;;;18.56;51.20;99739.22;5028240;28;20112;-74
2022/11/14 03:54:24;;;;;;;11.40;7.78;;;18.20;88.20;;;18.49;50.77;99741.53;5027611;28;20061;-74
2022/11/14 03:56:50;;;;;;;11.63;7.95;;;18.10;87.60;;;18.51;50.63;99742.06;5023856;28;20053;-74
2022/11/14 03:59:17;;;;;;;12.32;8.18;;;18.10;87.60;;;18.51;50.51;99729.13;5027333;28;20409;-74
2022/11/14 04:01:43;;;;;;;10.13;7.70;;;18.10;87.50;;;18.51;50.50;99729.13;5009786;28;20053;-74
2022/11/14 04:04:11;;;;;;;11.30;8.27;;;18.20;87.50;;;18.52;51.04;99728.03;5019905;28;20051;-73
2022/11/14 04:06:37;;;;;;;11.20;7.90;;;18.20;88.00;;;18.51;51.04;99731.06;5013598;28;20156;-73
2022/11/14 04:09:03;;;;;;;9.65;7.88;;;18.20;88.20;;;18.51;50.66;99715.41;5029988;28;20053;-74
2022/11/14 04:11:29;;;;;;;11.35;7.90;;;18.20;87.70;;;18.49;50.61;99706.66;5009091;28;20719;-74
2022/11/14 04:13:55;;;;;;;10.20;7.43;;;18.20;87.40;;;18.48;50.37;99713.25;5027155;28;20041;-74
2022/11/14 04:16:21;;;;;;;8.93;7.35;;;18.20;87.10;;;18.51;50.28;99712.66;5012288;28;20049;-74
2022/11/14 04:18:47;;;;;;;11.35;7.95;;;18.20;87.10;;;18.50;50.62;99722.03;5024316;28;20041;-74
2022/11/14 04:21:14;;;;;;;10.38;7.32;;;18.20;87.40;;;18.50;50.81;99723.97;5007786;28;20484;-74
2022/11/14 04:23:40;;;;;;;11.15;8.15;;;18.20;87.70;;;18.54;50.90;99727.72;5025674;28;20046;-74
2022/11/14 04:26:06;;;;;;;12.50;7.30;;;18.20;87.80;;;18.52;50.31;99738.19;5011439;28;20065;-74
2022/11/14 04:28:32;;;;;;;11.77;7.95;;;18.20;87.40;;;18.53;50.16;99726.09;5023026;28;20392;-74
2022/11/14 04:30:59;;;;;;;10.77;7.43;;;18.10;87.20;;;18.48;50.26;99723.44;5009097;28;20046;-74
2022/11/14 04:33:25;;;;;;;10.38;7.32;;;18.10;86.80;;;18.48;50.18;99727.00;5028776;28;20431;-74
2022/11/14 04:35:52;;;;;;;9.55;7.80;;;18.10;87.20;;;18.48;50.46;99723.44;5026808;28;20042;-74
2022/11/14 04:38:18;;;;;;;10.07;7.53;;;18.10;87.50;;;18.49;50.57;99723.13;5026334;28;20049;-74
2022/11/14 04:40:49;;;;;;;12.50;7.95;;;18.20;87.60;;;18.46;50.60;99714.69;4992382;28;20409;-74
2022/11/14 04:43:15;;;;;;;11.40;8.52;;;18.10;87.50;;;18.44;50.28;99710.31;5008997;28;20092;-74
2022/11/14 04:45:42;;;;;;;13.48;8.27;;;18.10;87.20;;;18.48;50.19;99710.53;5005512;28;20042;-74
2022/11/14 04:48:08;;;;;;;10.75;7.72;;;18.10;87.20;;;18.49;49.96;99708.59;5029871;28;20063;-74
2022/11/14 04:50:34;;;;;;;10.02;7.22;;;18.20;86.80;;;18.47;50.11;99716.31;5009700;28;20046;-74
2022/11/14 04:53:00;;;;;;;9.75;6.82;;;18.20;86.70;;;18.48;50.54;99702.28;5029669;28;20045;-74
2022/11/14 04:55:28;;;;;;;9.80;7.10;;;18.10;87.20;;;18.48;50.47;99704.22;5011499;28;20037;-74
2022/11/14 04:57:55;;;;;;;11.20;6.55;;;18.20;87.40;;;18.49;50.29;99700.34;5025657;28;20052;-75
2022/11/14 05:00:22;;;;;;;9.40;6.38;;;18.20;86.90;;;18.48;50.24;99693.22;5027251;28;20171;-75
2022/11/14 05:02:48;;;;;;;9.25;6.82;;;18.10;86.90;;;18.48;50.09;99701.47;5025409;28;20060;-74
2022/11/14 05:05:14;;;;;;;10.27;7.07;;;18.10;87.50;;;18.47;49.97;99697.06;5026439;28;20460;-74
2022/11/14 05:07:40;;;;;;;9.25;7.07;;;18.10;86.60;;;18.43;50.25;99696.88;5006633;28;20410;-74
2022/11/14 05:10:08;;;;;;;9.00;6.70;;;18.10;87.00;;;18.41;50.28;99699.13;5015860;28;20147;-74
2022/11/14 05:12:34;;;;;;;11.93;7.40;;;18.10;87.60;;;18.40;50.57;99689.25;5017531;28;20048;-74
2022/11/14 05:15:00;;;;;;;9.60;6.80;;;18.10;87.60;;;18.41;50.36;99690.88;5045782;28;20670;-74
2022/11/14 05:17:26;;;;;;;8.77;6.45;;;18.00;86.90;;;18.44;50.27;99698.50;5018685;28;20045;-74
2022/11/14 05:19:52;;;;;;;8.85;6.68;;;18.10;87.00;;;18.47;49.92;99699.81;5020226;28;20045;-74
2022/11/14 05:22:19;;;;;;;8.15;6.15;;;18.10;86.80;;;18.44;49.82;99693.00;5029452;28;20045;-74
2022/11/14 05:24:45;;;;;;;10.48;7.35;;;18.10;86.60;;;18.44;50.27;99688.34;5017884;28;20048;-74
2022/11/14 05:27:10;;;;;;;10.18;7.43;;;18.10;87.10;;;18.42;50.40;99693.31;5016055;28;20053;-74
2022/11/14 05:29:39;;;;;;;10.52;7.00;;;18.10;87.30;;;18.44;50.41;99687.50;5036551;28;20049;-74
2022/11/14 05:32:05;;;;;;;9.40;6.60;;;18.10;87.30;;;18.43;49.83;99692.19;5015120;28;20041;-74
2022/11/14 05:34:32;;;;;;;14.70;7.03;;;18.00;86.80;;;18.44;49.92;99690.25;5027739;28;20127;-74
2022/11/14 05:36:57;;;;;;;9.27;6.95;;;18.00;86.60;;;18.40;49.85;99703.00;4995486;28;20041;-73
2022/11/14 05:39:24;;;;;;;9.38;5.97;;;18.00;86.70;;;18.41;49.80;99705.41;5031605;28;20404;-74
2022/11/14 05:41:50;;;;;;;9.05;6.28;;;18.00;86.60;;;18.38;50.21;99695.03;5029322;28;20053;-74
2022/11/14 05:44:16;;;;;;;9.23;6.35;;;18.10;87.10;;;18.43;50.40;99700.44;4996441;28;20041;-74
2022/11/14 05:46:42;;;;;;;8.35;6.15;;;18.10;87.20;;;18.38;50.08;99700.53;5029830;28;20047;-74
2022/11/14 05:49:08;;;;;;;8.60;6.78;;;18.10;86.90;;;18.40;49.91;99689.25;5030109;28;20045;-74
2022/11/14 05:51:34;;;;;;;9.13;6.70;;;17.90;86.70;;;18.41;49.95;99691.69;5031117;28;20037;-74
2022/11/14 05:54:00;;;;;;;7.00;5.70;;;18.00;86.70;;;18.39;50.09;99693.94;5028038;28;20049;-74
2022/11/14 05:56:26;;;;;;;8.38;7.00;;;18.10;86.60;;;18.38;50.00;99688.75;5031701;28;20465;-73
2022/11/14 05:58:52;;;;;;;10.18;6.50;;;18.10;86.60;;;18.36;49.94;99683.53;5027843;28;20723;-73
2022/11/14 06:01:19;;;;;;;9.40;6.45;;;18.10;86.70;;;18.37;50.00;99692.63;5026984;28;20034;-73
2022/11/14 06:03:46;;;;;;;8.43;5.85;;;18.10;86.50;;;18.39;50.42;99702.19;5000782;28;20065;-73
2022/11/14 06:06:15;;;;;;;9.40;6.90;;;18.10;87.00;;;18.39;50.36;99695.84;5014341;28;20725;-73
2022/11/14 06:08:41;;;;;;;7.25;5.78;;;18.00;87.30;;;18.38;50.37;99694.22;5013975;28;20037;-74
2022/11/14 06:11:10;;;;;;;9.45;6.43;;;18.00;87.40;;;18.35;50.11;99695.66;4998361;28;20034;-74
2022/11/14 06:13:36;;;;;;;8.93;6.00;;;18.00;87.00;;;18.38;50.13;99691.50;5011332;28;20456;-74
2022/11/14 06:16:05;;;;;;;8.00;6.18;;;18.10;86.90;;;18.39;50.21;99693.94;5011022;28;20062;-74
2022/11/14 06:18:31;;;;;;;7.95;5.38;;;18.10;86.70;;;18.39;50.38;99695.84;5010705;28;20800;-74
2022/11/14 06:20:59;;;;;;;8.68;6.03;;;18.10;86.90;;;18.40;50.65;99700.25;5031271;28;20099;-74
2022/11/14 06:23:26;;;;;;;9.23;6.25;;;18.00;87.40;;;18.39;50.71;99704.94;4991973;28;20041;-74
2022/11/14 06:25:56;;;;;;;12.88;6.18;;;18.00;87.50;;;18.38;50.51;99695.03;5005975;28;20050;-74
2022/11/14 06:28:22;;;;;;;7.80;6.20;;;18.00;87.40;;;18.39;50.46;99704.94;5016596;28;20386;-74
2022/11/14 06:30:48;;;;;;;6.85;5.30;;;18.10;87.20;;;18.39;50.10;99702.19;4994337;28;20067;-74
2022/11/14 06:33:14;;;;;;;8.02;5.93;;;18.10;87.10;;;18.41;50.20;99704.59;5025245;28;20611;-74
2022/11/14 06:35:41;;;;;;;10.25;6.63;;;18.00;86.90;;;18.41;50.57;99705.41;5022735;28;20050;-74
2022/11/14 06:38:07;;;;;;;6.38;5.28;;;18.00;87.40;;;18.38;50.55;99706.03;5025040;28;20041;-73
2022/11/14 06:40:33;;;;;;;7.10;5.93;;;18.10;87.60;;;18.46;50.65;99706.44;5011745;28;20049;-73
2022/11/14 06:42:59;;;;;;;10.18;6.45;;;18.00;87.60;;;18.43;50.48;99705.94;5021551;28;20042;-73
2022/11/14 06:45:25;;;;;;;7.82;6.65;;;18.00;87.50;;;18.46;50.24;99703.69;5024540;28;20053;-73
2022/11/14 06:47:51;;;;;;;7.82;5.97;;;18.00;87.50;;;18.47;50.29;99702.56;5028406;28;20096;-73
2022/11/14 06:50:17;;;;;;;8.13;5.72;;;18.00;87.50;;;18.49;50.37;99692.09;5026912;28;20042;-74
2022/11/14 06:52:47;;;;;;;11.40;6.60;;;18.00;87.60;;;18.48;50.51;99687.72;5026083;28;20051;-74
2022/11/14 06:55:13;;;;;;;7.70;5.43;;;18.00;88.00;;;18.53;50.76;99680.19;5023085;28;20457;-73
2022/11/14 06:57:40;;;;;;;7.82;5.25;;;18.10;88.00;;;18.55;50.46;99679.91;4994955;28;20440;-73
2022/11/14 07:00:07;;;;;;;8.50;5.85;;;18.10;87.60;;;18.56;50.26;99689.75;5013882;28;20139;-73
2022/11/14 07:02:33;;;;;;;8.15;5.43;;;18.10;87.40;;;18.59;50.27;99691.91;5010227;28;20053;-73
2022/11/14 07:04:59;;;;;;;7.15;6.03;;;18.10;87.40;;;18.63;50.06;99695.69;5032667;28;20052;-74
2022/11/14 07:07:25;;;;;;;7.78;5.55;;;18.20;87.30;;;18.63;50.48;99691.00;5032307;28;20033;-73
2022/11/14 07:09:53;;;;;;;6.78;5.20;;;18.10;87.60;;;18.66;50.32;99695.88;5030528;28;20045;-73
2022/11/14 07:12:19;;;;;;;7.32;5.47;;;18.20;87.70;;;18.64;50.37;99698.09;5030668;28;20441;-73
2022/11/14 07:14:45;;;;;;;8.57;6.05;;;18.20;87.80;;;18.70;50.34;99698.00;5030867;28;20053;-73
2022/11/14 07:17:11;;;;;;;6.50;4.88;;;18.10;88.30;;;18.66;50.21;99703.31;5004909;28;20093;-73
2022/11/14 07:19:37;;;;;;;11.10;5.70;;;18.20;87.60;;;18.74;50.10;99699.84;5021800;28;20113;-73
2022/11/14 07:22:03;;;;;;;6.68;5.20;;;18.20;87.70;;;18.75;49.98;99696.00;5005706;28;20056;-73
2022/11/14 07:24:29;;;;;;;5.78;5.10;;;18.20;87.40;;;18.80;50.29;99709.66;5023487;28;20045;-73
2022/11/14 07:26:55;;;;;;;7.32;5.20;;;18.20;87.80;;;18.79;50.32;99704.44;5017453;28;20076;-73
2022/11/14 07:29:22;;;;;;;8.32;6.13;;;18.20;87.80;;;18.84;50.09;99702.41;5006646;28;20047;-74
2022/11/14 07:31:48;;;;;;;6.68;5.03;;;18.20;87.70;;;18.86;50.07;99693.88;5024740;28;20049;-74
2022/11/14 07:34:14;;;;;;;7.35;5.30;;;18.30;87.70;;;18.85;50.09;99687.56;5017773;28;20079;-74
2022/11/14 07:36:41;;;;;;;5.78;5.13;;;18.30;87.70;;;18.90;49.98;99694.06;5021176;28;20045;-74
2022/11/14 07:39:07;;;;;;;4.90;4.45;;;18.30;87.50;;;18.93;49.79;99702.53;5027598;28;20384;-74
2022/11/14 07:41:33;;;;;;;6.05;4.63;;;18.30;87.60;;;18.95;50.12;99693.94;5008937;28;20037;-74
2022/11/14 07:43:59;;;;;;;7.15;4.60;;;18.30;87.70;;;18.96;50.06;99690.91;5026116;28;20087;-74
2022/11/14 07:46:25;;;;;;;7.57;5.47;;;18.30;87.80;;;18.99;49.98;99692.22;5027801;28;20481;-74
2022/11/14 07:48:51;;;;;;;6.43;5.43;;;18.30;87.70;;;19.02;49.91;99695.16;5006664;28;20045;-74
2022/11/14 07:51:18;;;;;;;8.23;5.35;;;18.30;87.70;;;19.04;49.83;99694.84;5027050;28;20048;-74
2022/11/14 07:53:45;;;;;;;7.65;5.35;;;18.40;87.80;;;19.06;49.88;99684.38;5018753;28;20115;-74
2022/11/14 07:56:11;;;;;;;6.47;4.93;;;18.40;87.60;;;19.15;49.69;99684.44;5010982;28;20709;-74
2022/11/14 07:58:39;;;;;;;4.93;4.43;;;18.40;87.80;;;19.15;49.86;99687.19;5028543;28;20037;-74
2022/11/14 08:01:06;;;;;;;7.78;5.50;;;18.40;87.90;;;19.18;49.83;99679.13;5011345;28;20038;-74
2022/11/14 08:03:33;;;;;;;6.72;5.05;;;18.40;88.00;;;19.19;49.71;99675.28;5003737;28;20049;-74
2022/11/14 08:06:10;;;;;;;5.65;4.40;;;18.40;87.90;;;19.19;49.73;99678.03;5012466;28;20407;-74
2022/11/14 08:08:36;;;;;;;7.50;5.35;;;18.40;87.80;;;19.26;49.56;99674.84;5014464;28;20040;-74
2022/11/14 08:11:02;;;;;;;6.70;5.30;;;18.40;87.80;;;19.28;49.36;99672.59;5007114;28;20077;-74
2022/11/14 08:13:29;;;;;;;5.68;4.57;;;18.50;87.80;;;19.34;49.41;99668.63;4989650;28;20037;-74
2022/11/14 08:15:59;;;;;;;7.20;5.40;;;18.50;87.70;;;19.34;49.67;99665.06;4995423;28;20053;-74
2022/11/14 08:18:25;;;;;;;6.72;5.05;;;18.60;87.80;;;19.36;49.66;99654.53;5012668;28;20186;-74
2022/11/14 08:20:51;;;;;;;6.53;4.60;;;18.60;87.70;;;19.38;49.47;99652.28;5000478;28;20453;-74
2022/11/14 08:23:17;;;;;;;7.38;4.82;;;18.60;87.60;;;19.45;49.55;99647.16;5026564;28;20392;-74
2022/11/14 08:25:43;;;;;;;6.80;5.53;;;18.60;87.70;;;19.44;49.44;99657.38;5025852;28;20052;-74
2022/11/14 08:28:10;;;;;;;7.78;4.68;;;18.70;87.70;;;19.52;49.17;99650.31;4993302;28;20072;-74
2022/11/14 08:30:36;;;;;;;5.47;4.65;;;18.70;87.70;;;19.56;49.38;99640.28;4991035;28;20048;-74
2022/11/14 08:33:05;;;;;;;6.55;5.00;;;18.70;87.70;;;19.55;49.27;99641.41;5028515;28;20038;-74
2022/11/14 08:35:34;;;;;;;5.18;4.30;;;18.70;88.00;;;19.60;49.26;99637.72;4992460;28;20046;-74
2022/11/14 08:38:01;;;;;;;4.93;4.38;;;18.70;87.80;;;19.60;49.45;99632.22;5028380;28;20045;-74
2022/11/14 08:40:28;;;;;;;5.47;4.55;;;18.70;87.80;;;19.61;49.15;99634.66;5013611;28;20038;-74
2022/11/14 08:43:00;;;;;;;6.93;5.32;;;18.80;87.60;;;19.67;49.00;99624.38;5027843;28;20041;-74
2022/11/14 08:45:28;;;;;;;5.20;4.20;;;18.80;87.60;;;19.71;49.06;99633.63;5016951;28;20044;-74
2022/11/14 08:47:57;;;;;;;6.50;4.38;;;18.90;87.60;;;19.70;49.19;99638.31;5008440;28;20045;-74
2022/11/14 08:50:23;;;;;;;5.13;4.10;;;18.90;87.60;;;19.73;49.20;99642.38;5022137;28;20065;-74
2022/11/14 08:52:50;;;;;;;6.53;5.18;;;18.90;87.70;;;19.76;49.23;99639.00;4999038;28;20412;-74
2022/11/14 08:55:17;;;;;;;4.95;4.20;;;18.90;87.60;;;19.80;48.88;99633.69;5033979;28;20415;-74
2022/11/14 08:57:44;;;;;;;4.82;4.22;;;18.90;87.60;;;19.81;49.03;99629.78;5010047;28;20413;-74
2022/11/14 09:00:10;;;;;;;4.72;4.07;;;19.00;87.50;;;19.86;49.15;99635.16;5027732;28;20042;-74
2022/11/14 09:02:37;;;;;;;6.38;5.32;;;19.00;87.60;;;19.83;48.98;99641.31;5037994;28;20491;-74
2022/11/14 09:05:03;;;;;;;4.53;4.00;;;19.00;87.60;;;19.85;49.20;99637.13;5011270;28;20045;-74
2022/11/14 09:07:29;;;;;;;5.22;3.88;;;19.00;87.70;;;19.86;49.16;99637.91;5024907;28;20048;-74
2022/11/14 09:09:55;;;;;;;4.93;4.43;;;19.10;87.70;;;19.89;49.00;99638.09;5024398;28;20045;-74
2022/11/14 09:12:22;;;;;;;5.90;4.43;;;19.10;87.60;;;19.88;48.92;99636.47;5025819;28;20045;-74
2022/11/14 09:14:47;;;;;;;5.07;3.97;;;19.00;87.70;;;19.90;49.12;99638.94;5010791;28;20497;-74
2022/11/14 09:17:14;;;;;;;5.10;4.60;;;19.00;87.60;;;19.95;48.84;99639.59;5028411;28;20050;-74
2022/11/14 09:19:40;;;;;;;4.82;4.35;;;19.10;87.70;;;19.90;49.20;99628.72;5010216;28;20099;-74
2022/11/14 09:22:06;;;;;;;6.03;5.00;;;19.10;87.60;;;19.94;48.95;99637.16;4994935;28;20509;-74
2022/11/14 09:24:32;;;;;;;4.82;3.85;;;19.20;87.60;;;19.97;48.93;99633.75;5010693;28;20052;-74
2022/11/14 09:26:58;;;;;;;5.35;4.63;;;19.10;87.50;;;19.99;48.80;99630.69;5011981;28;20082;-74
2022/11/14 09:29:24;;;;;;;5.28;4.10;;;19.10;87.50;;;20.02;48.80;99628.13;5007999;28;20461;-74
2022/11/14 09:31:51;;;;;;;5.20;4.22;;;19.10;87.50;;;20.01;48.90;99629.25;5030218;28;20052;-74
2022/11/14 09:34:17;;;;;;;5.60;4.45;;;19.20;87.50;;;20.03;48.69;99629.75;5012690;28;20041;-74
2022/11/14 09:36:45;;;;;;;5.03;4.32;;;19.30;87.40;;;20.04;49.03;99623.13;4988869;28;20042;-74
2022/11/14 09:39:11;;;;;;;5.88;4.35;;;19.30;87.50;;;20.05;48.95;99616.50;5030869;28;20160;-74
2022/11/14 09:42:17;;;;;;;5.93;4.82;;;19.30;87.40;;;20.09;48.83;99616.66;5027725;28;20512;-74
2022/11/14 09:45:03;;;;;;;5.35;4.25;;;19.20;87.50;;;20.11;48.54;99614.41;5025811;28;20056;-74
2022/11/14 09:47:31;;;;;;;4.80;3.95;;;19.30;87.50;;;20.07;48.80;99622.47;5033463;28;20041;-73
2022/11/14 09:50:09;;;;;;;6.47;4.63;;;19.30;87.40;;;20.06;48.68;99609.84;5027114;28;20590;-73
2022/11/14 09:52:37;;;;;;;6.15;4.68;;;19.30;87.50;;;20.04;48.88;99612.09;4995326;28;20067;-73
2022/11/14 09:55:28;;;;;;;4.78;4.13;;;19.30;87.50;;;20.08;49.10;99612.28;5015673;28;20053;-73
2022/11/14 09:57:55;;;;;;;5.07;4.27;;;19.40;87.40;;;20.08;48.82;99607.59;5003391;28;20038;-73
2022/11/14 10:00:23;;;;;;;5.57;4.18;;;19.30;87.10;;;20.13;48.73;99604.69;5011967;28;20286;-73
2022/11/14 10:03:07;;;;;;;4.35;3.67;;;19.40;87.30;;;20.10;48.66;99610.84;5014071;28;20049;-73
2022/11/14 10:05:42;;;;;;;4.60;3.75;;;19.30;87.20;;;20.11;48.67;99612.47;5034272;28;20503;-73
2022/11/14 10:08:30;;;;;;;5.00;3.85;;;19.40;87.20;;;20.15;48.79;99605.19;5027881;28;20044;-74
2022/11/14 10:10:57;;;;;;;5.15;3.90;;;19.40;87.00;;;20.14;48.84;99606.31;5026988;28;20049;-73
2022/11/14 10:13:54;;;;;;;5.00;3.88;;;19.40;87.20;;;20.17;48.69;99605.69;5028066;28;20551;-73
2022/11/14 10:16:46;;;;;;;5.47;4.45;;;19.40;87.20;;;20.18;48.68;99603.75;5029934;28;20087;-73